createdAt,value
2023-02-13T00:00:26.083Z,11.10
2023-02-13T00:02:57.022Z,11.11
2023-02-13T00:05:26.749Z,11.03
2023-02-13T00:07:55.428Z,11.00
2023-02-13T00:10:26.820Z,11.03
2023-02-13T00:12:56.513Z,10.85
2023-02-13T00:15:25.933Z,10.83
2023-02-13T00:17:54.978Z,10.62
2023-02-13T00:20:25.242Z,10.75
2023-02-13T00:22:56.224Z,10.91
2023-02-13T00:25:25.849Z,10.85
2023-02-13T00:27:54.788Z,10.61
2023-02-13T00:30:27.892Z,10.50
2023-02-13T00:32:56.407Z,10.24
2023-02-13T00:35:26.976Z,10.40
2023-02-13T00:37:58.394Z,10.45
2023-02-13T00:40:29.463Z,10.37
2023-02-13T00:42:57.875Z,10.31
2023-02-13T00:45:28.116Z,10.35
2023-02-13T00:47:58.885Z,10.35
2023-02-13T00:50:56.362Z,10.52
2023-02-13T00:53:26.868Z,10.32
2023-02-13T00:55:56.014Z,10.17
2023-02-13T00:58:27.136Z,10.30
2023-02-13T01:00:57.072Z,10.34
2023-02-13T01:03:29.626Z,10.39
2023-02-13T01:05:58.555Z,10.38
2023-02-13T01:08:28.482Z,10.39
2023-02-13T01:10:58.502Z,10.19
2023-02-13T01:13:27.330Z,10.30
2023-02-13T01:15:57.915Z,10.31
2023-02-13T01:18:30.655Z,10.28
2023-02-13T01:21:06.813Z,10.42
2023-02-13T01:23:37.976Z,10.40
2023-02-13T01:26:08.132Z,10.25
2023-02-13T01:28:37.803Z,10.34
2023-02-13T01:31:05.867Z,10.28
2023-02-13T01:33:38.868Z,10.30
2023-02-13T01:36:12.150Z,10.15
2023-02-13T01:38:42.188Z,10.24
2023-02-13T01:41:11.798Z,10.26
2023-02-13T01:43:52.165Z,10.05
2023-02-13T01:46:35.611Z,9.97
2023-02-13T01:49:10.122Z,10.16
2023-02-13T01:51:37.955Z,10.08
2023-02-13T01:54:09.743Z,10.06
2023-02-13T01:56:42.665Z,9.97
2023-02-13T01:59:20.063Z,10.04
2023-02-13T02:01:57.599Z,9.91
2023-02-13T02:04:36.438Z,9.70
2023-02-13T02:07:24.842Z,9.82
2023-02-13T02:09:58.476Z,9.63
2023-02-13T02:12:36.037Z,9.88
2023-02-13T02:15:07.825Z,9.77
2023-02-13T02:17:35.509Z,9.60
2023-02-13T02:20:21.400Z,9.62
2023-02-13T02:23:26.768Z,9.30
2023-02-13T02:26:04.271Z,9.39
2023-02-13T02:29:05.883Z,9.60
2023-02-13T02:32:06.085Z,9.52
2023-02-13T02:34:58.522Z,9.26
2023-02-13T02:37:58.561Z,9.12
2023-02-13T02:40:36.464Z,9.00
2023-02-13T02:43:22.270Z,9.06
2023-02-13T02:46:10.524Z,9.26
2023-02-13T02:49:28.300Z,8.96
2023-02-13T02:52:16.795Z,8.82
2023-02-13T02:55:07.504Z,8.92
2023-02-13T02:58:26.383Z,9.15
2023-02-13T03:01:18.673Z,9.18
2023-02-13T03:04:07.155Z,8.73
2023-02-13T03:06:37.854Z,8.74
2023-02-13T03:09:32.035Z,8.58
2023-02-13T03:12:19.862Z,8.58
2023-02-13T03:14:53.132Z,8.45
2023-02-13T03:17:41.147Z,8.40
2023-02-13T03:20:47.456Z,8.43
2023-02-13T03:23:52.764Z,8.06
2023-02-13T03:26:35.317Z,8.41
2023-02-13T03:29:35.814Z,8.33
2023-02-13T03:32:42.023Z,8.72
2023-02-13T03:35:53.311Z,7.87
2023-02-13T03:38:56.300Z,7.65
2023-02-13T03:41:54.060Z,7.69
2023-02-13T03:44:38.616Z,7.48
2023-02-13T03:47:14.154Z,7.47
2023-02-13T03:50:04.461Z,7.61
2023-02-13T03:53:05.677Z,7.73
2023-02-13T03:56:03.458Z,7.75
2023-02-13T03:58:58.073Z,7.89
2023-02-13T04:01:34.116Z,7.85
2023-02-13T04:04:17.059Z,7.99
2023-02-13T04:07:41.044Z,8.01
2023-02-13T04:10:15.352Z,7.73
2023-02-13T04:13:08.307Z,7.52
2023-02-13T04:16:01.558Z,7.62
2023-02-13T04:18:34.177Z,7.38
2023-02-13T04:21:08.731Z,7.64
2023-02-13T04:23:37.173Z,7.80
2023-02-13T04:26:08.971Z,7.20
2023-02-13T04:28:42.815Z,7.34
2023-02-13T04:31:13.120Z,7.42
2023-02-13T04:33:41.347Z,7.73
2023-02-13T04:36:08.873Z,7.75
2023-02-13T04:38:37.860Z,7.91
2023-02-13T04:41:05.926Z,7.73
2023-02-13T04:43:36.362Z,7.75
2023-02-13T04:46:04.344Z,7.87
2023-02-13T04:48:32.908Z,8.10
2023-02-13T04:51:00.947Z,7.91
2023-02-13T04:53:31.595Z,7.98
2023-02-13T04:55:59.438Z,7.86
2023-02-13T04:58:30.141Z,7.89
2023-02-13T05:01:00.183Z,7.35
2023-02-13T05:03:30.139Z,7.47
2023-02-13T05:06:01.489Z,7.51
2023-02-13T05:08:29.545Z,7.31
2023-02-13T05:11:00.613Z,7.28
2023-02-13T05:13:33.448Z,7.40
2023-02-13T05:16:01.996Z,7.37
2023-02-13T05:18:31.826Z,7.40
2023-02-13T05:21:19.035Z,6.97
2023-02-13T05:23:51.977Z,6.84
2023-02-13T05:26:32.666Z,6.93
2023-02-13T05:29:20.187Z,6.65
2023-02-13T05:31:49.937Z,6.91
2023-02-13T05:34:17.783Z,7.08
2023-02-13T05:37:02.061Z,6.75
2023-02-13T05:39:32.048Z,6.79
2023-02-13T05:42:00.756Z,6.49
2023-02-13T05:44:35.439Z,6.59
2023-02-13T05:47:03.046Z,6.71
2023-02-13T05:49:31.548Z,6.72
2023-02-13T05:52:04.719Z,6.78
2023-02-13T05:54:42.617Z,6.73
2023-02-13T05:57:11.749Z,6.70
2023-02-13T05:59:41.776Z,6.36
2023-02-13T06:02:09.712Z,6.34
2023-02-13T06:04:37.598Z,6.37
2023-02-13T06:07:05.567Z,6.47
2023-02-13T06:09:33.106Z,6.53
2023-02-13T06:12:02.372Z,6.69
2023-02-13T06:14:36.139Z,6.37
2023-02-13T06:17:04.252Z,6.53
2023-02-13T06:19:31.940Z,5.98
2023-02-13T06:22:05.483Z,5.82
2023-02-13T06:24:34.094Z,5.80
2023-02-13T06:27:06.234Z,5.75
2023-02-13T06:29:38.271Z,5.94
2023-02-13T06:32:06.800Z,5.82
2023-02-13T06:34:45.038Z,6.03
2023-02-13T06:37:12.733Z,5.72
2023-02-13T06:39:40.361Z,5.78
2023-02-13T06:42:09.569Z,5.82
2023-02-13T06:44:37.665Z,5.93
2023-02-13T06:47:06.774Z,6.09
2023-02-13T06:50:00.488Z,5.89
2023-02-13T06:52:33.363Z,5.85
2023-02-13T06:55:01.961Z,5.79
2023-02-13T06:57:35.691Z,6.21
2023-02-13T07:00:07.968Z,6.22
2023-02-13T07:02:42.082Z,6.25
2023-02-13T07:05:24.707Z,6.19
2023-02-13T07:08:02.164Z,6.17
2023-02-13T07:10:40.795Z,6.21
2023-02-13T07:13:13.038Z,6.25
2023-02-13T07:15:49.055Z,6.54
2023-02-13T07:18:29.493Z,6.49
2023-02-13T07:21:01.861Z,6.63
2023-02-13T07:23:30.621Z,6.40
2023-02-13T07:26:03.156Z,6.29
2023-02-13T07:28:34.923Z,6.46
2023-02-13T07:31:11.246Z,6.49
2023-02-13T07:33:43.018Z,6.38
2023-02-13T07:36:12.010Z,6.37
2023-02-13T07:38:52.143Z,6.29
2023-02-13T07:41:20.648Z,6.25
2023-02-13T07:44:01.798Z,6.18
2023-02-13T07:46:30.766Z,6.07
2023-02-13T07:49:02.401Z,6.01
2023-02-13T07:51:37.664Z,6.12
2023-02-13T07:54:06.665Z,5.97
2023-02-13T07:56:35.334Z,6.14
2023-02-13T07:59:06.251Z,6.19
2023-02-13T08:01:34.741Z,6.31
2023-02-13T08:04:09.729Z,6.12
2023-02-13T08:06:47.834Z,6.18
2023-02-13T08:09:40.971Z,6.38
2023-02-13T08:12:31.249Z,6.41
2023-02-13T08:15:05.809Z,6.76
2023-02-13T08:17:37.299Z,9.40
2023-02-13T08:20:13.392Z,11.96
2023-02-13T08:22:43.984Z,13.69
2023-02-13T08:25:20.536Z,14.86
2023-02-13T08:27:49.632Z,15.61
2023-02-13T08:30:18.735Z,15.95
2023-02-13T08:32:54.622Z,16.77
2023-02-13T08:35:37.131Z,16.60
2023-02-13T08:38:09.317Z,17.13
2023-02-13T08:40:39.745Z,17.35
2023-02-13T08:43:08.776Z,17.19
2023-02-13T08:45:47.076Z,17.57
2023-02-13T08:48:22.733Z,17.41
2023-02-13T08:50:51.861Z,17.16
2023-02-13T08:53:22.554Z,16.42
2023-02-13T08:56:00.085Z,15.49
2023-02-13T08:58:39.865Z,15.61
2023-02-13T09:01:09.804Z,15.10
2023-02-13T09:03:38.255Z,14.72
2023-02-13T09:06:20.860Z,14.82
2023-02-13T09:09:01.197Z,12.67
2023-02-13T09:11:47.040Z,11.09
2023-02-13T09:14:34.416Z,10.66
2023-02-13T09:17:32.735Z,9.74
2023-02-13T09:20:07.728Z,9.88
2023-02-13T09:22:43.088Z,9.53
2023-02-13T09:25:20.795Z,9.53
2023-02-13T09:27:58.966Z,9.54
2023-02-13T09:30:42.413Z,9.62
2023-02-13T09:33:38.094Z,10.02
2023-02-13T09:36:11.312Z,10.21
2023-02-13T09:38:47.971Z,9.86
2023-02-13T09:41:44.564Z,10.08
2023-02-13T09:44:36.370Z,10.39
2023-02-13T09:47:23.725Z,10.85
2023-02-13T09:50:18.428Z,11.43
2023-02-13T09:52:48.741Z,10.60
2023-02-13T09:55:27.709Z,10.62
2023-02-13T09:58:36.013Z,11.03
2023-02-13T10:01:07.086Z,10.78
2023-02-13T10:04:08.564Z,11.27
2023-02-13T10:07:00.588Z,11.74
2023-02-13T10:12:43.837Z,10.99
2023-02-13T10:15:37.100Z,11.46
2023-02-13T10:18:28.383Z,11.91
2023-02-13T10:21:12.678Z,11.87
2023-02-13T10:27:03.138Z,12.19
2023-02-13T10:33:26.910Z,11.84
2023-02-13T10:36:11.072Z,11.80
2023-02-13T10:39:33.314Z,12.00
2023-02-13T10:42:24.418Z,12.05
2023-02-13T10:45:15.901Z,12.09
2023-02-13T10:58:54.632Z,11.63
2023-02-13T11:01:58.033Z,12.03
2023-02-13T11:09:01.325Z,12.40
2023-02-13T11:11:51.942Z,12.69
2023-02-13T11:15:00.467Z,12.42
2023-02-13T11:17:34.950Z,12.05
2023-02-13T11:20:32.669Z,12.69
2023-02-13T11:27:14.154Z,12.77
2023-02-13T11:30:16.013Z,12.31
2023-02-13T11:33:02.672Z,12.78
2023-02-13T11:38:59.477Z,12.30
2023-02-13T11:41:49.854Z,13.16
2023-02-13T11:44:36.656Z,12.83
2023-02-13T11:47:17.871Z,12.77
2023-02-13T11:49:53.133Z,13.17
2023-02-13T11:52:37.245Z,13.53
2023-02-13T11:55:35.987Z,13.39
2023-02-13T11:58:16.038Z,13.30
2023-02-13T12:01:00.253Z,13.52
2023-02-13T12:03:41.849Z,13.66
2023-02-13T12:06:21.804Z,13.15
2023-02-13T12:09:09.518Z,13.24
2023-02-13T12:11:55.431Z,13.22
2023-02-13T12:14:45.818Z,13.15
2023-02-13T12:17:36.461Z,13.67
2023-02-13T12:20:15.928Z,13.13
2023-02-13T12:23:18.434Z,13.17
2023-02-13T12:26:11.724Z,13.87
2023-02-13T12:29:36.937Z,13.68
2023-02-13T12:32:36.220Z,13.81
2023-02-13T12:35:32.795Z,13.81
2023-02-13T12:38:17.938Z,13.40
2023-02-13T12:41:16.980Z,14.08
2023-02-13T12:44:06.929Z,13.41
2023-02-13T12:47:03.044Z,14.17
2023-02-13T12:49:41.050Z,13.60
2023-02-13T12:52:35.194Z,13.47
2023-02-13T12:55:35.132Z,13.99
2023-02-13T12:58:35.598Z,14.04
2023-02-13T13:01:48.860Z,13.66
2023-02-13T13:04:41.617Z,13.61
2023-02-13T13:07:34.264Z,13.80
2023-02-13T13:10:26.927Z,13.81
2023-02-13T13:13:23.299Z,13.43
2023-02-13T13:16:19.293Z,13.92
2023-02-13T13:19:01.625Z,13.70
2023-02-13T13:21:45.766Z,13.72
2023-02-13T13:25:01.469Z,13.55
2023-02-13T13:27:50.540Z,13.75
2023-02-13T13:30:23.391Z,14.06
2023-02-13T13:33:03.940Z,14.29
2023-02-13T13:35:43.088Z,14.16
2023-02-13T13:38:43.458Z,14.10
2023-02-13T13:41:46.557Z,14.23
2023-02-13T13:44:36.831Z,14.36
2023-02-13T13:47:20.861Z,13.98
2023-02-13T13:50:01.341Z,14.47
2023-02-13T13:52:44.587Z,13.99
2023-02-13T13:56:03.652Z,14.11
2023-02-13T13:58:48.921Z,14.04
2023-02-13T14:01:27.369Z,13.59
2023-02-13T14:04:36.914Z,14.04
2023-02-13T14:07:05.643Z,13.59
2023-02-13T14:09:51.418Z,13.75
2023-02-13T14:12:26.271Z,13.62
2023-02-13T14:14:55.709Z,13.52
2023-02-13T14:17:46.903Z,14.17
2023-02-13T14:20:38.282Z,14.42
2023-02-13T14:23:18.808Z,14.29
2023-02-13T14:25:49.023Z,14.11
2023-02-13T14:28:34.868Z,14.56
2023-02-13T14:31:28.498Z,14.51
2023-02-13T14:34:08.893Z,14.79
2023-02-13T14:36:50.534Z,14.34
2023-02-13T14:39:35.041Z,13.98
2023-02-13T14:42:11.564Z,14.21
2023-02-13T14:44:54.332Z,14.37
2023-02-13T14:47:49.337Z,14.35
2023-02-13T14:50:58.041Z,14.74
2023-02-13T14:53:59.712Z,14.24
2023-02-13T14:56:42.303Z,14.35
2023-02-13T14:59:37.065Z,14.25
2023-02-13T15:02:20.058Z,14.24
2023-02-13T15:04:52.160Z,14.24
2023-02-13T15:07:45.810Z,14.12
2023-02-13T15:10:30.931Z,14.20
2023-02-13T15:13:35.624Z,14.65
2023-02-13T15:16:14.159Z,14.17
2023-02-13T15:19:00.045Z,14.20
2023-02-13T15:21:37.612Z,14.56
2023-02-13T15:24:24.279Z,14.46
2023-02-13T15:27:26.199Z,14.35
2023-02-13T15:30:24.906Z,14.86
2023-02-13T15:33:27.983Z,14.16
2023-02-13T15:36:12.229Z,14.27
2023-02-13T15:38:47.440Z,14.16
2023-02-13T15:41:38.844Z,13.85
2023-02-13T15:44:26.220Z,14.20
2023-02-13T15:47:08.639Z,14.14
2023-02-13T15:49:46.261Z,14.23
2023-02-13T15:52:43.040Z,14.07
2023-02-13T15:55:39.373Z,13.95
2023-02-13T15:58:16.558Z,14.43
2023-02-13T16:00:50.203Z,14.57
2023-02-13T16:03:40.654Z,14.08
2023-02-13T16:06:15.422Z,13.98
2023-02-13T16:09:00.434Z,14.37
2023-02-13T16:11:48.332Z,14.23
2023-02-13T16:14:34.462Z,14.39
2023-02-13T16:17:23.450Z,14.41
2023-02-13T16:20:08.631Z,14.46
2023-02-13T16:25:49.743Z,14.39
2023-02-13T16:28:26.644Z,14.63
2023-02-13T16:31:10.134Z,14.71
2023-02-13T16:33:49.022Z,14.65
2023-02-13T16:36:32.228Z,14.73
2023-02-13T16:39:19.558Z,14.62
2023-02-13T16:41:54.902Z,14.56
2023-02-13T16:47:28.120Z,14.45
2023-02-13T16:49:59.921Z,14.45
2023-02-13T16:52:29.326Z,14.41
2023-02-13T16:55:04.608Z,14.34
2023-02-13T16:58:19.372Z,14.36
2023-02-13T17:00:54.988Z,14.30
2023-02-13T17:03:33.773Z,14.24
2023-02-13T17:06:10.424Z,14.20
2023-02-13T17:08:45.144Z,14.07
2023-02-13T17:11:28.684Z,13.98
2023-02-13T17:14:13.092Z,13.98
2023-02-13T17:32:53.483Z,13.57
2023-02-13T17:38:32.328Z,13.52
2023-02-13T17:41:14.017Z,13.59
2023-02-13T18:18:38.582Z,12.92
2023-02-13T18:21:12.602Z,12.89
2023-02-13T18:23:42.620Z,12.86
2023-02-13T18:33:12.563Z,12.66
2023-02-13T18:46:13.645Z,12.64
2023-02-13T18:55:36.017Z,12.49
2023-02-13T19:08:07.616Z,12.54
2023-02-13T19:11:14.708Z,12.46
2023-02-13T19:14:03.218Z,12.41
2023-02-13T19:16:52.518Z,12.36
2023-02-13T19:20:01.998Z,12.43
2023-02-13T19:22:49.015Z,12.35
2023-02-13T19:25:48.459Z,12.34
2023-02-13T19:28:20.304Z,12.31
2023-02-13T19:30:53.905Z,12.29
2023-02-13T19:33:23.822Z,12.29
2023-02-13T19:36:09.128Z,12.22
2023-02-13T19:38:51.047Z,12.26
2023-02-13T19:44:46.551Z,12.27
2023-02-13T19:47:24.140Z,12.18
2023-02-13T19:50:07.169Z,12.14
2023-02-13T19:53:00.999Z,12.16
2023-02-13T19:55:35.158Z,12.16
2023-02-13T19:58:11.867Z,12.14
2023-02-13T20:00:58.470Z,12.16
2023-02-13T20:03:39.766Z,12.05
2023-02-13T20:06:22.611Z,12.09
2023-02-13T20:09:00.329Z,12.13
2023-02-13T20:11:46.254Z,12.02
2023-02-13T20:14:16.114Z,12.04
2023-02-13T20:17:09.254Z,12.02
2023-02-13T20:19:46.028Z,12.00
2023-02-13T20:22:17.304Z,11.93
2023-02-13T20:25:07.152Z,11.94
2023-02-13T20:28:15.986Z,11.87
2023-02-13T20:30:56.454Z,11.91
2023-02-13T20:33:32.076Z,11.89
2023-02-13T20:36:08.733Z,11.86
2023-02-13T20:38:58.960Z,11.81
2023-02-13T20:41:32.606Z,11.80
2023-02-13T20:44:11.691Z,11.74
2023-02-13T20:46:56.904Z,11.74
2023-02-13T20:49:30.116Z,11.70
2023-02-13T20:52:55.990Z,11.71
2023-02-13T20:55:50.039Z,11.40
2023-02-13T20:58:24.415Z,11.30
2023-02-13T21:01:03.441Z,11.07
2023-02-13T21:03:32.457Z,10.71
2023-02-13T21:06:06.579Z,10.55
2023-02-13T21:08:53.097Z,10.55
2023-02-13T21:11:27.008Z,10.58
2023-02-13T21:14:21.215Z,10.79
2023-02-13T21:16:58.640Z,10.74
2023-02-13T21:19:30.154Z,10.60
2023-02-13T21:22:16.751Z,10.69
2023-02-13T21:25:03.398Z,10.71
2023-02-13T21:27:45.481Z,10.81
2023-02-13T21:30:15.606Z,10.50
2023-02-13T21:33:01.172Z,10.46
2023-02-13T21:35:51.548Z,10.61
2023-02-13T21:38:40.626Z,10.48
2023-02-13T21:41:43.086Z,10.31
2023-02-13T21:44:34.806Z,10.39
2023-02-13T21:47:34.365Z,10.42
2023-02-13T21:50:16.437Z,10.13
2023-02-13T21:53:06.987Z,9.92
2023-02-13T21:55:37.157Z,9.62
2023-02-13T21:58:09.382Z,9.25
2023-02-13T22:00:56.989Z,9.25
2023-02-13T22:03:39.910Z,9.15
2023-02-13T22:06:43.878Z,9.18
2023-02-13T22:09:23.401Z,9.23
2023-02-13T22:12:27.913Z,9.43
2023-02-13T22:15:13.145Z,9.17
2023-02-13T22:17:44.662Z,9.10
2023-02-13T22:20:20.032Z,9.32
2023-02-13T22:22:55.821Z,9.23
2023-02-13T22:25:36.570Z,9.26
2023-02-13T22:28:11.777Z,9.34
2023-02-13T22:30:45.938Z,9.23
2023-02-13T22:33:34.573Z,9.15
2023-02-13T22:36:10.744Z,9.17
2023-02-13T22:38:49.792Z,9.24
2023-02-13T22:41:48.616Z,9.09
2023-02-13T22:44:19.785Z,9.03
2023-02-13T22:46:55.044Z,8.99
2023-02-13T22:49:44.867Z,9.09
2023-02-13T22:52:18.831Z,9.00
2023-02-13T22:55:00.464Z,8.98
2023-02-13T22:57:32.231Z,8.97
2023-02-13T23:00:18.937Z,9.13
2023-02-13T23:02:49.217Z,8.95
2023-02-13T23:05:29.282Z,9.10
2023-02-13T23:07:56.901Z,9.05
2023-02-13T23:10:46.817Z,9.24
2023-02-13T23:13:17.901Z,9.43
2023-02-13T23:16:04.906Z,9.21
2023-02-13T23:18:58.489Z,9.18
2023-02-13T23:21:44.581Z,9.12
2023-02-13T23:24:36.657Z,9.38
2023-02-13T23:27:20.924Z,9.18
2023-02-13T23:30:13.938Z,8.97
2023-02-13T23:32:49.370Z,8.79
2023-02-13T23:35:26.815Z,8.77
2023-02-13T23:38:09.049Z,8.58
2023-02-13T23:40:47.585Z,8.58
2023-02-13T23:43:21.485Z,8.71
2023-02-13T23:46:20.261Z,8.61
2023-02-13T23:48:59.569Z,8.38
2023-02-13T23:51:35.676Z,8.40
2023-02-13T23:54:22.921Z,8.28
2023-02-13T23:56:56.671Z,8.26
2023-02-13T23:59:30.413Z,8.56
